Time;durP1;ratioP1;P1;durP2;ratioP2;P2;SDS_P1;SDS_P2;PMS_P1;PMS_P2;Temp;Humidity;BMP_temperature;BMP_pressure;BME280_temperature;BME280_humidity;BME280_pressure;Samples;Min_cycle;Max_cycle;Signal;HPM_P1;HPM_P2
2023/04/25 00:02:24;;;;;;;;;;;;;;;12.48;74.33;99891.79;108692;1256;124595;-81
2023/04/25 00:04:52;;;;;;;;;;;;;;;12.51;74.30;99893.55;108902;1257;67565;-81
2023/04/25 00:07:19;;;;;;;;;;;;;;;12.53;74.35;99891.98;108758;1256;124704;-81
2023/04/25 00:09:46;;;;;;;;;;;;;;;12.53;74.34;99894.98;108676;1256;59676;-82
2023/04/25 00:12:13;;;;;;;;;;;;;;;12.53;74.39;99886.16;108855;1257;60290;-81
2023/04/25 00:14:40;;;;;;;;;;;;;;;12.55;74.50;99886.18;108764;1256;124694;-81
2023/04/25 00:17:07;;;;;;;;;;;;;;;12.57;74.50;99882.13;108761;1256;244755;-82
2023/04/25 00:19:34;;;;;;;;;;;;;;;12.58;74.47;99878.27;108795;1256;124986;-80
2023/04/25 00:22:01;;;;;;;;;;;;;;;12.58;74.50;99878.98;108794;1256;60174;-81
2023/04/25 00:24:28;;;;;;;;;;;;;;;12.59;74.52;99877.05;108844;1256;60098;-80
2023/04/25 00:26:55;;;;;;;;;;;;;;;12.59;74.56;99878.27;108742;1256;125180;-80
2023/04/25 00:29:22;;;;;;;;;;;;;;;12.60;74.63;99876.34;108936;1256;66940;-80
2023/04/25 00:31:49;;;;;;;;;;;;;;;12.60;74.69;99875.80;108818;1256;125183;-80
2023/04/25 00:34:16;;;;;;;;;;;;;;;12.60;74.64;99873.35;108741;1257;59929;-80
2023/04/25 00:36:43;;;;;;;;;;;;;;;12.59;74.58;99879.87;108900;1256;59320;-80
2023/04/25 00:39:11;;;;;;;;;;;;;;;12.58;74.77;99881.27;108830;1256;125469;-79
2023/04/25 00:41:37;;;;;;;;;;;;;;;12.59;74.90;99884.08;108823;1256;65828;-79
2023/04/25 00:44:05;;;;;;;;;;;;;;;12.62;74.86;99886.73;108789;1256;124607;-80
2023/04/25 00:46:32;;;;;;;;;;;;;;;12.64;74.81;99891.65;108814;1256;59684;-80
2023/04/25 00:48:59;;;;;;;;;;;;;;;12.63;74.85;99893.77;108685;1258;124895;-80
2023/04/25 00:51:27;;;;;;;;;;;;;;;12.63;74.78;99894.11;108845;1256;72675;-80
2023/04/25 00:53:54;;;;;;;;;;;;;;;12.63;74.87;99896.58;108852;1257;66936;-80
2023/04/25 00:56:21;;;;;;;;;;;;;;;12.63;75.00;99895.52;108749;1257;125413;-80
2023/04/25 00:58:48;;;;;;;;;;;;;;;12.63;74.91;99897.11;108728;1256;59401;-80
2023/04/25 01:01:15;;;;;;;;;;;;;;;12.62;74.99;99897.11;108763;1256;125318;-80
2023/04/25 01:03:42;;;;;;;;;;;;;;;12.62;74.97;99894.30;108881;1256;74767;-80
2023/04/25 01:06:09;;;;;;;;;;;;;;;12.64;75.02;99893.24;108747;1256;67104;-80
2023/04/25 01:08:37;;;;;;;;;;;;;;;12.65;75.05;99894.48;108719;1256;124784;-81
2023/04/25 01:11:04;;;;;;;;;;;;;;;12.65;75.04;99890.44;108809;1256;59033;-81
2023/04/25 01:13:31;;;;;;;;;;;;;;;12.66;75.06;99892.55;108661;1263;125125;-80
2023/04/25 01:15:59;;;;;;;;;;;;;;;12.66;75.08;99890.42;108784;1256;74661;-80
2023/04/25 01:18:26;;;;;;;;;;;;;;;12.65;75.18;99890.95;108891;1257;67103;-82
2023/04/25 01:20:53;;;;;;;;;;;;;;;12.66;75.25;99891.66;108656;1256;125581;-82
2023/04/25 01:23:20;;;;;;;;;;;;;;;12.67;75.32;99892.02;108781;1256;59797;-81
2023/04/25 01:25:47;;;;;;;;;;;;;;;12.67;75.30;99889.03;108578;1257;124767;-82
2023/04/25 01:28:15;;;;;;;;;;;;;;;12.68;75.32;99890.61;108690;1256;73360;-79
2023/04/25 01:30:42;;;;;;;;;;;;;;;12.67;75.35;99887.27;108951;1256;67178;-80
2023/04/25 01:33:09;;;;;;;;;;;;;;;12.65;75.38;99889.19;108711;1256;124849;-80
2023/04/25 01:35:36;;;;;;;;;;;;;;;12.64;75.47;99892.53;108764;1256;59410;-82
2023/04/25 01:38:02;;;;;;;;;;;;;;;12.63;75.43;99892.71;108672;1256;125364;-80
2023/04/25 01:40:29;;;;;;;;;;;;;;;12.63;75.59;99893.24;108901;1256;74693;-81
2023/04/25 01:42:57;;;;;;;;;;;;;;;12.61;75.58;99894.46;108664;1256;125423;-80
2023/04/25 01:45:24;;;;;;;;;;;;;;;12.59;75.68;99897.11;108855;1256;71797;-81
2023/04/25 01:47:51;;;;;;;;;;;;;;;12.60;75.69;99899.21;108839;1256;59966;-81
2023/04/25 01:50:18;;;;;;;;;;;;;;;12.59;75.70;99903.27;108645;1262;124688;-81
2023/04/25 01:52:45;;;;;;;;;;;;;;;12.60;75.82;99908.89;108711;1262;73366;-81
2023/04/25 01:55:11;;;;;;;;;;;;;;;12.60;75.82;99908.19;108766;1256;125534;-79
2023/04/25 01:57:40;;;;;;;;;;;;;;;12.60;75.85;99905.90;108748;1256;71801;-78
2023/04/25 02:00:08;;;;;;;;;;;;;;;12.60;75.88;99911.54;108865;1256;59392;-78
2023/04/25 02:02:35;;;;;;;;;;;;;;;12.59;75.89;99909.60;108774;1256;124968;-78
2023/04/25 02:05:02;;;;;;;;;;;;;;;12.58;75.85;99912.93;108756;1256;73274;-77
2023/04/25 02:07:29;;;;;;;;;;;;;;;12.55;76.11;99909.77;108744;1256;124885;-78
2023/04/25 02:09:56;;;;;;;;;;;;;;;12.55;76.07;99910.81;108774;1256;72675;-78
2023/04/25 02:12:24;;;;;;;;;;;;;;;12.55;76.00;99911.86;108864;1256;59535;-78
2023/04/25 02:14:51;;;;;;;;;;;;;;;12.54;76.10;99913.10;108714;1256;125364;-78
2023/04/25 02:17:18;;;;;;;;;;;;;;;12.53;76.09;99910.46;108835;1256;74928;-80
2023/04/25 02:19:45;;;;;;;;;;;;;;;12.52;76.10;99911.33;108746;1256;125536;-79
2023/04/25 02:22:11;;;;;;;;;;;;;;;12.52;76.20;99913.45;108791;1256;73218;-80
2023/04/25 02:24:39;;;;;;;;;;;;;;;12.53;76.23;99916.79;108780;1256;59420;-79
2023/04/25 02:27:05;;;;;;;;;;;;;;;12.53;76.25;99914.67;108723;1256;125009;-78
2023/04/25 02:29:32;;;;;;;;;;;;;;;12.52;76.30;99916.44;108881;1256;74773;-80
2023/04/25 02:31:59;;;;;;;;;;;;;;;12.52;76.36;99918.02;108655;1257;125595;-80
2023/04/25 02:34:26;;;;;;;;;;;;;;;12.52;76.21;99918.89;108903;1261;71442;-82
2023/04/25 02:36:53;;;;;;;;;;;;;;;12.49;76.14;99925.23;108818;1256;59596;-82
2023/04/25 02:39:22;;;;;;;;;;;;;;;12.48;76.35;99921.71;108261;1257;61142;-83
2023/04/25 02:41:49;;;;;;;;;;;;;;;12.48;76.40;99922.77;108190;1256;75145;-83
2023/04/25 02:44:16;;;;;;;;;;;;;;;12.46;76.42;99917.47;108722;1256;124943;-83
2023/04/25 02:46:42;;;;;;;;;;;;;;;12.44;76.50;99918.87;108849;1256;73090;-82
2023/04/25 02:49:09;;;;;;;;;;;;;;;12.40;76.38;99914.98;108739;1257;125031;-83
2023/04/25 02:51:36;;;;;;;;;;;;;;;12.38;76.52;99917.80;108836;1256;59378;-80
2023/04/25 02:54:03;;;;;;;;;;;;;;;12.35;76.47;99919.52;108931;1256;74828;-80
2023/04/25 02:56:30;;;;;;;;;;;;;;;12.33;76.66;99917.94;108807;1260;125105;-79
2023/04/25 02:58:57;;;;;;;;;;;;;;;12.32;76.67;99918.63;108886;1256;72724;-79
2023/04/25 03:01:24;;;;;;;;;;;;;;;12.27;76.68;99918.26;108753;1260;124902;-79
2023/04/25 03:03:51;;;;;;;;;;;;;;;12.24;76.81;99916.66;108766;1258;60926;-80
2023/04/25 03:06:18;;;;;;;;;;;;;;;12.22;76.79;99921.58;108705;1256;74984;-80
2023/04/25 03:08:45;;;;;;;;;;;;;;;12.20;76.82;99915.95;108761;1256;124884;-80
2023/04/25 03:11:12;;;;;;;;;;;;;;;12.19;76.94;99917.35;108753;1256;71337;-79
2023/04/25 03:13:39;;;;;;;;;;;;;;;12.19;76.98;99917.16;108743;1256;125574;-79
2023/04/25 03:16:06;;;;;;;;;;;;;;;12.17;76.97;99915.23;108871;1256;60060;-79
2023/04/25 03:18:33;;;;;;;;;;;;;;;12.16;76.93;99911.52;108661;1256;72986;-79
2023/04/25 03:21:00;;;;;;;;;;;;;;;12.15;77.10;99909.06;108700;1260;125402;-78
2023/04/25 03:23:27;;;;;;;;;;;;;;;12.14;77.06;99911.87;108895;1256;72580;-78
2023/04/25 03:25:54;;;;;;;;;;;;;;;12.13;77.16;99910.80;108754;1260;125236;-79
2023/04/25 03:28:21;;;;;;;;;;;;;;;12.14;77.22;99911.70;108740;1263;60089;-79
2023/04/25 03:30:48;;;;;;;;;;;;;;;12.14;77.21;99906.94;108513;1257;73402;-79
2023/04/25 03:33:15;;;;;;;;;;;;;;;12.16;77.28;99914.17;107242;1260;124572;-79
2023/04/25 03:35:42;;;;;;;;;;;;;;;12.17;77.30;99912.07;107445;1256;72640;-79
2023/04/25 03:38:09;;;;;;;;;;;;;;;12.17;77.17;99910.84;107475;1256;125098;-81
2023/04/25 03:40:36;;;;;;;;;;;;;;;12.15;77.13;99912.92;108109;1256;60671;-78
2023/04/25 03:43:03;;;;;;;;;;;;;;;12.15;77.18;99909.23;107950;1256;126116;-78
2023/04/25 03:45:30;;;;;;;;;;;;;;;12.16;77.25;99914.16;107540;1257;68090;-78
2023/04/25 03:47:57;;;;;;;;;;;;;;;12.14;77.24;99910.11;107589;1257;70876;-79
2023/04/25 03:50:24;;;;;;;;;;;;;;;12.15;77.31;99911.88;107712;1257;125913;-79
2023/04/25 03:52:51;;;;;;;;;;;;;;;12.18;77.36;99911.89;107631;1256;61306;-80
2023/04/25 03:55:18;;;;;;;;;;;;;;;12.20;77.28;99918.23;107697;1256;125270;-79
2023/04/25 03:57:45;;;;;;;;;;;;;;;12.18;76.90;99924.73;107839;1256;65740;-79
2023/04/25 04:00:12;;;;;;;;;;;;;;;12.08;76.01;99932.94;107423;1260;73828;-79
2023/04/25 04:02:39;;;;;;;;;;;;;;;11.90;75.35;99934.05;107496;1256;124864;-82
2023/04/25 04:05:07;;;;;;;;;;;;;;;11.77;75.19;99939.92;107794;1256;61157;-79
2023/04/25 04:07:39;;;;;;;;;;;;;;;11.63;74.94;99939.11;107536;1256;124430;-80
2023/04/25 04:10:07;;;;;;;;;;;;;;;11.54;75.08;99945.37;107482;1256;67100;-79
2023/04/25 04:12:34;;;;;;;;;;;;;;;11.51;75.03;99946.92;107437;1256;72689;-79
2023/04/25 04:15:03;;;;;;;;;;;;;;;11.47;74.92;99943.55;107319;1256;127027;-79
2023/04/25 04:17:30;;;;;;;;;;;;;;;11.46;74.90;99943.38;107492;1256;60183;-78
2023/04/25 04:19:57;;;;;;;;;;;;;;;11.43;74.75;99945.10;107473;1262;124916;-78
2023/04/25 04:22:24;;;;;;;;;;;;;;;11.36;74.52;99949.26;107656;1256;67196;-80
2023/04/25 04:24:51;;;;;;;;;;;;;;;11.30;74.47;99953.23;108906;1261;71413;-77
2023/04/25 04:27:19;;;;;;;;;;;;;;;11.24;74.34;99953.19;107792;1257;125081;-79
2023/04/25 04:29:46;;;;;;;;;;;;;;;11.19;74.32;99956.83;107160;1257;61193;-78
2023/04/25 04:32:13;;;;;;;;;;;;;;;11.20;74.28;99962.97;107314;1256;125174;-81
2023/04/25 04:34:41;;;;;;;;;;;;;;;11.21;74.45;99965.63;107415;1256;68043;-78
2023/04/25 04:37:09;;;;;;;;;;;;;;;11.24;74.32;99969.69;107524;1256;125528;-76
2023/04/25 04:39:36;;;;;;;;;;;;;;;11.28;74.40;99970.61;108746;1256;59200;-78
2023/04/25 04:42:04;;;;;;;;;;;;;;;11.32;74.24;99972.05;108744;1256;60566;-76
2023/04/25 04:44:35;;;;;;;;;;;;;;;11.34;74.17;99973.65;108685;1256;125188;-79
2023/04/25 04:47:05;;;;;;;;;;;;;;;11.34;74.05;99971.36;108644;1256;67050;-79
2023/04/25 04:49:32;;;;;;;;;;;;;;;11.33;73.88;99973.30;108593;1256;124475;-79
2023/04/25 04:52:00;;;;;;;;;;;;;;;11.29;73.95;99972.04;108735;1256;59411;-79
2023/04/25 04:54:27;;;;;;;;;;;;;;;11.30;73.96;99969.23;108971;1256;59105;-79
2023/04/25 04:56:54;;;;;;;;;;;;;;;11.28;73.94;99969.39;108842;1260;124479;-80
2023/04/25 04:59:21;;;;;;;;;;;;;;;11.26;73.91;99972.17;108960;1256;67052;-80
2023/04/25 05:01:48;;;;;;;;;;;;;;;11.26;74.03;99974.28;108803;1256;125230;-80
2023/04/25 05:04:15;;;;;;;;;;;;;;;11.34;74.23;99972.61;108867;1257;59308;-80
2023/04/25 05:06:42;;;;;;;;;;;;;;;11.44;74.18;99970.41;108895;1256;59319;-80
2023/04/25 05:09:09;;;;;;;;;;;;;;;11.52;74.10;99975.39;108839;1256;125300;-80
2023/04/25 05:11:37;;;;;;;;;;;;;;;11.62;74.22;99973.20;108864;1256;65607;-81
2023/04/25 05:14:04;;;;;;;;;;;;;;;11.73;74.00;99974.35;108730;1256;125358;-81
2023/04/25 05:16:31;;;;;;;;;;;;;;;11.80;73.73;99971.75;108955;1256;59564;-79
2023/04/25 05:18:58;;;;;;;;;;;;;;;11.82;73.40;99967.38;108872;1256;125314;-80
2023/04/25 05:21:27;;;;;;;;;;;;;;;11.88;73.33;99972.37;108819;1257;73387;-80
2023/04/25 05:23:54;;;;;;;;;;;;;;;11.91;72.87;99977.48;108816;1256;65738;-79
2023/04/25 05:26:21;;;;;;;;;;;;;;;11.96;72.90;99978.75;107567;1259;124768;-80
2023/04/25 05:28:50;;;;;;;;;;;;;;;12.03;72.85;99975.13;107524;1262;60281;-79
2023/04/25 05:31:18;;;;;;;;;;;;;;;12.07;72.57;99980.60;107775;1256;124471;-80
2023/04/25 05:33:45;;;;;;;;;;;;;;;12.08;72.12;99982.89;107667;1259;73060;-80
2023/04/25 05:36:12;;;;;;;;;;;;;;;12.08;72.01;99984.98;107968;1260;67076;-80
2023/04/25 05:38:39;;;;;;;;;;;;;;;12.05;71.61;99988.49;107480;1256;125053;-80
2023/04/25 05:41:07;;;;;;;;;;;;;;;12.01;71.55;99994.79;107671;1261;60384;-80
2023/04/25 05:43:34;;;;;;;;;;;;;;;12.03;71.54;99999.20;107480;1258;125243;-80
2023/04/25 05:46:01;;;;;;;;;;;;;;;12.04;71.41;99998.34;107458;1258;74980;-80
2023/04/25 05:48:28;;;;;;;;;;;;;;;12.04;71.43;100004.66;107361;1256;67558;-80
2023/04/25 05:50:55;;;;;;;;;;;;;;;12.08;71.57;100009.08;107768;1256;124936;-80
2023/04/25 05:53:22;;;;;;;;;;;;;;;12.10;71.58;100012.63;108471;1256;59089;-80
2023/04/25 05:55:48;;;;;;;;;;;;;;;12.10;71.35;100014.56;108622;1257;125611;-80
2023/04/25 05:58:15;;;;;;;;;;;;;;;12.07;71.04;100012.95;108851;1257;75394;-80
2023/04/25 06:00:42;;;;;;;;;;;;;;;12.00;70.80;100018.17;108920;1256;66457;-80
2023/04/25 06:03:09;;;;;;;;;;;;;;;11.92;70.70;100021.45;108777;1256;124339;-80
2023/04/25 06:05:36;;;;;;;;;;;;;;;11.82;70.55;100024.86;108780;1260;59260;-80
2023/04/25 06:08:03;;;;;;;;;;;;;;;11.74;70.45;100028.48;108800;1260;124752;-80
2023/04/25 06:10:30;;;;;;;;;;;;;;;11.67;70.16;100028.06;108913;1260;74446;-80
2023/04/25 06:12:57;;;;;;;;;;;;;;;11.62;70.25;100028.04;108731;1259;124888;-80
2023/04/25 06:15:24;;;;;;;;;;;;;;;11.58;70.08;100032.03;108906;1256;73253;-80
2023/04/25 06:17:51;;;;;;;;;;;;;;;11.53;70.01;100031.80;108920;1256;59282;-80
2023/04/25 06:20:22;;;;;;;;;;;;;;;11.42;69.52;100036.27;108762;1256;124738;-80
2023/04/25 06:22:51;;;;;;;;;;;;;;;11.30;69.56;100038.77;108840;1256;75678;-79
2023/04/25 06:25:18;;;;;;;;;;;;;;;11.28;69.67;100041.06;108681;1257;124601;-79
2023/04/25 06:27:45;;;;;;;;;;;;;;;11.27;69.66;100041.73;108796;1257;71402;-80
2023/04/25 06:30:12;;;;;;;;;;;;;;;11.27;69.70;100045.59;108870;1257;59485;-80
2023/04/25 06:32:39;;;;;;;;;;;;;;;11.25;69.81;100046.64;108825;1257;124782;-80
2023/04/25 06:35:06;;;;;;;;;;;;;;;11.20;69.50;100047.45;108868;1257;75405;-80
2023/04/25 06:37:33;;;;;;;;;;;;;;;11.18;69.73;100048.31;108716;1257;125173;-80
2023/04/25 06:40:00;;;;;;;;;;;;;;;11.22;69.88;100052.56;108784;1257;71636;-80
2023/04/25 06:42:27;;;;;;;;;;;;;;;11.23;69.58;100048.89;108734;1256;59166;-80
2023/04/25 06:44:57;;;;;;;;;;;;;;;11.28;69.60;100051.77;108669;1257;125330;-80
2023/04/25 06:47:25;;;;;;;;;;;;;;;11.38;69.66;100050.80;108818;1257;73411;-80
2023/04/25 06:49:52;;;;;;;;;;;;;;;11.50;69.54;100050.58;108771;1256;125737;-79
2023/04/25 06:52:41;;;;;;;;;;;;;;;11.60;69.55;100052.79;108921;1256;71515;-80
2023/04/25 06:55:28;;;;;;;;;;;;;;;11.78;69.49;100054.70;108780;1256;127167;-80
2023/04/25 06:57:55;;;;;;;;;;;;;;;11.90;69.28;100055.01;108948;1257;59335;-80
2023/04/25 07:00:22;;;;;;;;;;;;;;;11.98;68.94;100056.32;108941;1257;75092;-79
2023/04/25 07:02:50;;;;;;;;;;;;;;;12.05;68.86;100053.20;108854;1256;124906;-80
2023/04/25 07:05:17;;;;;;;;;;;;;;;12.14;68.78;100054.67;108963;1256;72383;-80
2023/04/25 07:07:44;;;;;;;;;;;;;;;12.22;68.60;100053.67;108722;1256;125129;-80
2023/04/25 07:10:11;;;;;;;;;;;;;;;12.28;68.33;100054.60;108967;1257;59074;-80
2023/04/25 07:12:38;;;;;;;;;;;;;;;12.33;68.23;100053.76;108949;1260;74573;-80
2023/04/25 07:15:06;;;;;;;;;;;;;;;12.41;68.18;100056.98;108710;1256;124162;-80
2023/04/25 07:17:33;;;;;;;;;;;;;;;12.44;67.95;100057.52;108840;1257;73600;-80
2023/04/25 07:20:00;;;;;;;;;;;;;;;12.40;67.53;100059.77;108722;1256;124992;-80
2023/04/25 07:22:27;;;;;;;;;;;;;;;12.29;67.28;100064.13;108935;1256;59161;-80
2023/04/25 07:24:54;;;;;;;;;;;;;;;12.27;67.53;100068.84;108769;1262;73189;-80
2023/04/25 07:27:21;;;;;;;;;;;;;;;12.26;67.37;100068.49;108880;1257;65503;-80
2023/04/25 07:29:48;;;;;;;;;;;;;;;12.23;67.15;100067.23;108708;1256;72919;-80
2023/04/25 07:32:15;;;;;;;;;;;;;;;12.26;67.32;100070.42;108594;1257;125442;-79
2023/04/25 07:34:42;;;;;;;;;;;;;;;12.33;67.16;100067.84;108767;1256;59320;-80
2023/04/25 07:37:10;;;;;;;;;;;;;;;12.34;67.11;100065.73;108763;1260;124784;-80
2023/04/25 07:39:37;;;;;;;;;;;;;;;12.31;66.90;100073.27;108775;1256;67722;-80
2023/04/25 07:42:05;;;;;;;;;;;;;;;12.29;67.07;100071.86;108863;1260;71441;-80
2023/04/25 07:44:38;;;;;;;;;;;;;;;12.29;66.90;100080.29;108559;1256;124880;-80
2023/04/25 07:47:06;;;;;;;;;;;;;;;12.30;66.99;100081.88;108878;1256;58983;-80
2023/04/25 07:49:35;;;;;;;;;;;;;;;12.29;66.85;100085.56;108701;1258;124572;-80
2023/04/25 07:52:02;;;;;;;;;;;;;;;12.30;66.99;100084.35;108687;1265;67526;-80
2023/04/25 07:54:29;;;;;;;;;;;;;;;12.33;66.77;100088.08;108603;1257;71097;-78
2023/04/25 07:56:56;;;;;;;;;;;;;;;12.33;66.66;100089.83;108644;1257;124898;-77
2023/04/25 07:59:24;;;;;;;;;;;;;;;12.35;66.54;100090.89;108891;1256;59332;-78
2023/04/25 08:01:51;;;;;;;;;;;;;;;12.39;66.57;100093.73;108623;1259;124900;-80
2023/04/25 08:04:18;;;;;;;;;;;;;;;12.48;66.28;100099.77;108888;1257;65442;-80
2023/04/25 08:06:45;;;;;;;;;;;;;;;12.49;66.25;100100.50;108889;1257;71748;-80
2023/04/25 08:09:12;;;;;;;;;;;;;;;12.57;66.16;100095.10;108674;1257;124095;-80
2023/04/25 08:11:39;;;;;;;;;;;;;;;12.77;66.22;100097.32;108786;1257;59498;-80
2023/04/25 08:14:06;;;;;;;;;;;;;;;13.07;66.13;100100.82;108715;1261;124676;-80
2023/04/25 08:16:33;;;;;;;;;;;;;;;13.39;65.97;100102.02;108788;1263;65634;-81
2023/04/25 08:19:00;;;;;;;;;;;;;;;13.70;65.58;100104.39;108729;1257;124771;-80
2023/04/25 08:21:27;;;;;;;;;;;;;;;13.93;64.70;100103.20;108795;1258;59184;-80
2023/04/25 08:23:54;;;;;;;;;;;;;;;14.00;63.94;100107.09;109000;1257;59338;-80
2023/04/25 08:26:21;;;;;;;;;;;;;;;14.00;63.51;100113.42;108817;1256;124380;-80
2023/04/25 08:28:48;;;;;;;;;;;;;;;14.07;63.40;100115.73;107579;1262;65055;-80
2023/04/25 08:31:15;;;;;;;;;;;;;;;14.03;62.80;100122.77;107732;1262;124804;-80
2023/04/25 08:33:42;;;;;;;;;;;;;;;13.90;62.43;100117.65;107869;1261;61275;-80
2023/04/25 08:36:09;;;;;;;;;;;;;;;13.80;62.35;100123.64;107723;1259;62175;-80
2023/04/25 08:38:36;;;;;;;;;;;;;;;13.70;62.02;100122.73;107612;1257;124332;-81
2023/04/25 08:41:23;;;;;;;;;;;;;;;13.65;62.12;100126.95;107490;1258;66130;-80
2023/04/25 08:44:10;;;;;;;;;;;;;;;13.70;61.89;100122.91;107142;1263;124461;-78
2023/04/25 08:46:38;;;;;;;;;;;;;;;13.74;61.65;100123.62;107724;1259;60138;-78
2023/04/25 08:49:04;;;;;;;;;;;;;;;13.74;61.39;100128.20;107293;1260;124412;-78
2023/04/25 08:51:32;;;;;;;;;;;;;;;13.81;61.47;100129.80;107201;1259;75331;-80
2023/04/25 08:54:26;;;;;;;;;;;;;;;13.92;61.47;100131.94;107200;1260;67097;-80
2023/04/25 08:56:53;;;;;;;;;;;;;;;14.11;61.33;100134.24;107236;1260;125019;-80
2023/04/25 08:59:20;;;;;;;;;;;;;;;14.33;61.42;100134.61;107423;1263;60581;-80
2023/04/25 09:01:47;;;;;;;;;;;;;;;14.62;61.34;100136.91;107524;1263;124805;-80
2023/04/25 09:04:14;;;;;;;;;;;;;;;15.02;60.95;100138.24;107503;1259;73116;-80
2023/04/25 09:06:41;;;;;;;;;;;;;;;15.32;60.07;100131.42;107188;1265;67065;-80
2023/04/25 09:09:09;;;;;;;;;;;;;;;15.63;60.12;100133.04;106941;1261;124677;-80
2023/04/25 09:11:36;;;;;;;;;;;;;;;16.02;59.73;100134.23;108616;1260;60167;-80
2023/04/25 09:14:10;;;;;;;;;;;;;;;16.22;59.18;100132.66;107434;1263;124499;-80
2023/04/25 09:16:47;;;;;;;;;;;;;;;16.33;58.33;100138.42;107483;1258;74680;-80
2023/04/25 09:19:20;;;;;;;;;;;;;;;16.35;57.75;100141.23;107337;1259;124968;-80
2023/04/25 09:21:51;;;;;;;;;;;;;;;16.19;57.19;100143.48;107501;1257;72529;-80
2023/04/25 09:24:37;;;;;;;;;;;;;;;15.94;57.15;100148.63;107416;1257;61359;-80
2023/04/25 09:27:04;;;;;;;;;;;;;;;15.73;57.47;100146.43;107437;1262;124252;-80
2023/04/25 09:29:32;;;;;;;;;;;;;;;15.54;57.39;100146.52;107385;1257;74714;-80
2023/04/25 09:32:14;;;;;;;;;;;;;;;15.31;57.19;100152.64;107233;1263;124286;-80
2023/04/25 09:34:42;;;;;;;;;;;;;;;15.06;57.28;100153.08;107371;1257;72309;-79
2023/04/25 09:37:10;;;;;;;;;;;;;;;14.98;57.56;100154.16;107382;1257;125734;-79
2023/04/25 09:39:38;;;;;;;;;;;;;;;14.94;57.51;100155.21;107259;1261;59872;-80
2023/04/25 09:42:05;;;;;;;;;;;;;;;14.92;57.70;100164.77;107354;1262;74675;-80
2023/04/25 09:44:32;;;;;;;;;;;;;;;14.96;57.64;100163.16;107218;1260;124504;-79
2023/04/25 09:46:59;;;;;;;;;;;;;;;14.86;57.25;100163.72;107213;1263;72495;-80
2023/04/25 09:49:27;;;;;;;;;;;;;;;14.62;57.15;100166.93;108726;1261;124789;-80
2023/04/25 09:51:55;;;;;;;;;;;;;;;14.50;57.47;100170.61;107489;1259;61400;-80
2023/04/25 09:54:23;;;;;;;;;;;;;;;14.36;57.16;100176.80;107367;1262;73829;-80
2023/04/25 09:56:51;;;;;;;;;;;;;;;14.13;57.16;100177.66;107286;1257;124263;-80
2023/04/25 09:59:22;;;;;;;;;;;;;;;13.94;57.38;100182.56;107255;1257;71378;-80
2023/04/25 10:01:52;;;;;;;;;;;;;;;13.80;57.32;100184.46;107191;1257;125077;-79
2023/04/25 10:04:21;;;;;;;;;;;;;;;13.70;57.50;100181.61;107411;1260;60464;-79
2023/04/25 10:06:49;;;;;;;;;;;;;;;13.67;57.74;100183.20;107372;1258;73094;-79
2023/04/25 10:09:17;;;;;;;;;;;;;;;13.66;57.76;100186.55;108172;1258;124022;-80
2023/04/25 10:11:44;;;;;;;;;;;;;;;13.66;57.89;100185.31;107258;1258;70282;-79
2023/04/25 10:14:12;;;;;;;;;;;;;;;13.68;57.92;100189.55;107389;1256;124645;-80
2023/04/25 10:16:39;;;;;;;;;;;;;;;13.68;57.94;100188.32;107473;1257;61256;-80
2023/04/25 10:19:06;;;;;;;;;;;;;;;13.70;57.74;100187.97;107359;1258;125191;-80
2023/04/25 10:21:33;;;;;;;;;;;;;;;13.71;57.79;100185.69;108825;1258;66221;-80
2023/04/25 10:24:00;;;;;;;;;;;;;;;13.75;57.99;100189.04;108861;1263;71387;-80
2023/04/25 10:26:27;;;;;;;;;;;;;;;13.78;57.89;100190.46;108783;1257;124958;-80
2023/04/25 10:28:58;;;;;;;;;;;;;;;13.84;58.06;100190.83;108891;1256;59229;-80
2023/04/25 10:31:25;;;;;;;;;;;;;;;13.89;57.93;100195.08;108804;1257;124526;-80
2023/04/25 10:33:52;;;;;;;;;;;;;;;13.96;58.03;100193.67;108835;1258;65593;-80
2023/04/25 10:36:21;;;;;;;;;;;;;;;14.07;58.15;100199.88;108834;1261;73865;-80
2023/04/25 10:38:48;;;;;;;;;;;;;;;14.19;58.06;100197.95;108814;1257;124368;-79
2023/04/25 10:41:15;;;;;;;;;;;;;;;14.28;58.01;100199.55;107431;1257;61392;-79
2023/04/25 10:43:43;;;;;;;;;;;;;;;14.40;58.00;100199.91;107690;1257;124845;-80
2023/04/25 10:46:13;;;;;;;;;;;;;;;14.54;57.79;100198.70;107847;1258;65793;-80
2023/04/25 10:49:01;;;;;;;;;;;;;;;14.64;57.56;100202.97;107761;1257;72093;-80
2023/04/25 10:51:30;;;;;;;;;;;;;;;14.63;57.23;100201.54;107681;1257;61225;-80
2023/04/25 10:53:58;;;;;;;;;;;;;;;14.53;57.18;100203.81;107403;1256;59523;-80
2023/04/25 10:56:27;;;;;;;;;;;;;;;14.45;57.38;100207.69;107440;1257;124530;-79
2023/04/25 10:59:13;;;;;;;;;;;;;;;14.37;57.34;100210.32;107236;1263;67148;-80
2023/04/25 11:01:41;;;;;;;;;;;;;;;14.25;57.14;100213.15;106967;1261;124668;-79
2023/04/25 11:04:21;;;;;;;;;;;;;;;14.09;56.67;100212.59;107296;1257;61106;-79
2023/04/25 11:06:57;;;;;;;;;;;;;;;13.87;56.37;100210.95;107243;1257;61876;-79
2023/04/25 11:09:24;;;;;;;;;;;;;;;13.68;56.54;100219.16;107314;1257;124774;-79
2023/04/25 11:11:55;;;;;;;;;;;;;;;13.59;56.75;100216.67;107710;1260;65560;-79
2023/04/25 11:14:22;;;;;;;;;;;;;;;13.50;56.71;100215.58;108011;1257;124563;-79
2023/04/25 11:16:56;;;;;;;;;;;;;;;13.42;56.90;100215.88;108053;1258;59860;-80
2023/04/25 11:19:23;;;;;;;;;;;;;;;13.38;57.20;100214.10;107714;1258;124473;-80
2023/04/25 11:21:50;;;;;;;;;;;;;;;13.39;57.32;100217.11;107642;1260;74633;-80
2023/04/25 11:24:17;;;;;;;;;;;;;;;13.39;57.38;100218.16;107407;1261;67238;-80
2023/04/25 11:26:47;;;;;;;;;;;;;;;13.39;57.54;100220.11;107473;1260;124623;-80
2023/04/25 11:29:14;;;;;;;;;;;;;;;13.46;57.79;100223.30;107440;1258;60039;-79
2023/04/25 11:31:43;;;;;;;;;;;;;;;13.51;57.66;100224.91;107314;1257;125594;-80
2023/04/25 11:34:10;;;;;;;;;;;;;;;13.55;57.70;100225.30;107355;1257;72687;-80
2023/04/25 11:36:38;;;;;;;;;;;;;;;13.64;57.60;100229.91;107459;1258;65789;-80
2023/04/25 11:39:05;;;;;;;;;;;;;;;13.72;57.20;100230.64;107730;1257;124917;-80
2023/04/25 11:41:32;;;;;;;;;;;;;;;13.73;56.72;100231.88;107847;1264;60435;-80
2023/04/25 11:43:59;;;;;;;;;;;;;;;13.68;56.30;100233.45;107969;1256;124801;-80
2023/04/25 11:46:27;;;;;;;;;;;;;;;13.66;56.23;100229.92;107858;1257;74779;-80
2023/04/25 11:48:54;;;;;;;;;;;;;;;13.78;56.27;100232.61;107728;1257;66447;-80
2023/04/25 11:51:23;;;;;;;;;;;;;;;13.89;56.01;100233.01;107366;1256;124769;-78
2023/04/25 11:53:51;;;;;;;;;;;;;;;13.93;55.84;100230.89;107426;1256;62121;-79
2023/04/25 11:56:18;;;;;;;;;;;;;;;13.92;55.44;100235.84;107540;1258;124436;-79
2023/04/25 11:58:57;;;;;;;;;;;;;;;13.87;55.54;100234.75;107581;1258;73467;-79
2023/04/25 12:01:34;;;;;;;;;;;;;;;13.89;55.58;100231.95;107448;1257;124963;-79
2023/04/25 12:04:11;;;;;;;;;;;;;;;13.94;55.43;100233.54;107437;1261;71233;-79
2023/04/25 12:06:39;;;;;;;;;;;;;;;13.93;55.19;100236.89;107706;1257;59531;-79
2023/04/25 12:09:10;;;;;;;;;;;;;;;13.99;55.71;100240.09;107357;1256;125083;-78
2023/04/25 12:11:41;;;;;;;;;;;;;;;14.11;55.53;100245.06;107193;1256;74337;-78
2023/04/25 12:14:08;;;;;;;;;;;;;;;14.19;55.53;100243.30;107303;1257;124208;-79
2023/04/25 12:16:42;;;;;;;;;;;;;;;14.31;55.71;100245.10;107570;1257;285745;-79
2023/04/25 12:19:09;;;;;;;;;;;;;;;14.40;55.28;100245.11;107542;1261;125097;-78
2023/04/25 12:21:36;;;;;;;;;;;;;;;14.45;55.33;100248.30;107420;1258;59422;-78
2023/04/25 12:24:25;;;;;;;;;;;;;;;14.52;55.34;100246.18;107546;1257;74354;-79
2023/04/25 12:26:59;;;;;;;;;;;;;;;14.58;55.32;100247.28;107945;1256;124552;-79
2023/04/25 12:29:27;;;;;;;;;;;;;;;14.63;55.17;100244.27;107589;1257;71563;-79
2023/04/25 12:31:55;;;;;;;;;;;;;;;14.70;55.11;100247.63;107183;1257;125130;-78
2023/04/25 12:34:22;;;;;;;;;;;;;;;14.82;54.91;100249.73;107419;1258;59561;-78